createdAt,value
2023-04-26T00:00:50.195Z,0.0000
2023-04-26T00:01:51.434Z,0.0000
2023-04-26T00:02:51.374Z,0.0000
2023-04-26T00:03:52.626Z,0.0000
2023-04-26T00:04:53.985Z,0.0000
2023-04-26T00:05:55.039Z,0.0000
2023-04-26T00:06:55.858Z,0.0000
2023-04-26T00:07:56.513Z,0.0000
2023-04-26T00:08:57.150Z,0.0000
2023-04-26T00:09:57.924Z,0.0000
2023-04-26T00:10:58.543Z,0.0000
2023-04-26T00:11:59.199Z,0.0000
2023-04-26T00:13:00.147Z,0.0000
2023-04-26T00:14:00.738Z,0.0000
2023-04-26T00:15:01.820Z,0.0000
2023-04-26T00:16:02.595Z,0.0000
2023-04-26T00:17:03.507Z,0.0000
2023-04-26T00:18:04.317Z,0.0000
2023-04-26T00:19:05.819Z,0.0000
2023-04-26T00:20:06.433Z,0.0000
2023-04-26T00:21:07.131Z,0.0000
2023-04-26T00:22:07.647Z,0.0000
2023-04-26T00:23:08.443Z,0.0000
2023-04-26T00:24:09.294Z,0.0000
2023-04-26T00:25:09.806Z,0.0000
2023-04-26T00:26:10.676Z,0.0000
2023-04-26T00:27:11.000Z,0.0000
2023-04-26T00:28:11.454Z,0.0000
2023-04-26T00:29:12.328Z,0.0000
2023-04-26T00:31:13.032Z,0.0000
2023-04-26T00:32:13.688Z,0.0000
2023-04-26T00:33:14.839Z,0.0000
2023-04-26T00:34:15.322Z,0.0000
2023-04-26T00:35:16.100Z,0.0000
2023-04-26T00:36:16.837Z,0.0000
2023-04-26T00:37:17.271Z,0.0000
2023-04-26T00:38:18.602Z,0.0000
2023-04-26T00:39:19.505Z,0.0000
2023-04-26T00:40:19.731Z,0.0000
2023-04-26T00:41:19.800Z,0.0000
2023-04-26T00:42:21.493Z,0.0000
2023-04-26T00:43:21.871Z,0.0000
2023-04-26T00:44:24.422Z,0.0000
2023-04-26T00:46:24.728Z,0.0000
2023-04-26T00:47:25.405Z,0.0000
2023-04-26T00:48:26.205Z,0.0000
2023-04-26T00:49:26.723Z,0.0000
2023-04-26T00:50:27.526Z,0.0000
2023-04-26T00:51:28.138Z,0.0000
2023-04-26T00:52:28.870Z,0.0000
2023-04-26T00:53:29.664Z,0.0000
2023-04-26T00:54:30.211Z,0.0000
2023-04-26T00:55:32.310Z,0.0000
2023-04-26T00:57:32.175Z,0.0000
2023-04-26T00:58:32.310Z,0.0000
2023-04-26T00:59:35.110Z,0.0000
2023-04-26T01:00:35.601Z,0.0000
2023-04-26T01:01:36.130Z,0.0000
2023-04-26T01:02:36.745Z,0.0000
2023-04-26T01:03:37.505Z,0.0000
2023-04-26T01:04:38.158Z,0.0000
2023-04-26T01:05:39.867Z,0.0000
2023-04-26T01:06:39.835Z,0.0000
2023-04-26T01:07:40.433Z,0.0000
2023-04-26T01:08:41.095Z,0.0000
2023-04-26T01:09:41.929Z,0.0000
2023-04-26T01:10:42.752Z,0.0000
2023-04-26T01:11:43.608Z,0.0000
2023-04-26T01:12:44.296Z,0.0000
2023-04-26T01:13:44.879Z,0.0000
2023-04-26T01:14:45.253Z,0.0000
2023-04-26T01:15:45.991Z,0.0000
2023-04-26T01:16:47.128Z,0.0000
2023-04-26T01:17:48.321Z,0.0000
2023-04-26T01:18:49.221Z,0.0000
2023-04-26T01:19:48.687Z,0.0000
2023-04-26T01:20:48.659Z,0.0000
2023-04-26T01:21:52.254Z,0.0000
2023-04-26T01:22:52.349Z,0.0000
2023-04-26T01:23:52.599Z,0.0000
2023-04-26T01:24:52.844Z,0.0000
2023-04-26T01:25:53.557Z,0.0000
2023-04-26T01:26:53.840Z,0.0000
2023-04-26T01:27:54.335Z,0.0000
2023-04-26T01:29:54.657Z,0.0000
2023-04-26T01:30:55.473Z,0.0000
2023-04-26T01:31:56.408Z,0.0000
2023-04-26T01:32:57.206Z,0.0000
2023-04-26T01:33:57.985Z,0.0000
2023-04-26T01:34:58.654Z,0.0000
2023-04-26T01:35:59.392Z,0.0000
2023-04-26T01:37:00.302Z,0.0000
2023-04-26T01:38:00.851Z,0.0000
2023-04-26T01:39:01.528Z,0.0000
2023-04-26T01:40:02.327Z,0.0000
2023-04-26T01:41:02.912Z,0.0000
2023-04-26T01:42:03.721Z,0.0000
2023-04-26T01:43:04.330Z,0.0000
2023-04-26T01:44:05.312Z,0.0000
2023-04-26T01:45:06.117Z,0.0000
2023-04-26T01:46:06.871Z,0.0000
2023-04-26T01:47:07.080Z,0.0000
2023-04-26T01:48:08.124Z,0.0000
2023-04-26T01:49:08.392Z,0.0000
2023-04-26T01:50:08.630Z,0.0000
2023-04-26T01:51:10.344Z,0.0000
2023-04-26T01:52:09.944Z,0.0000
2023-04-26T01:53:10.649Z,0.0000
2023-04-26T01:54:11.480Z,0.0000
2023-04-26T01:55:12.271Z,0.0000
2023-04-26T01:56:12.975Z,0.0000
2023-04-26T01:57:13.692Z,0.0000
2023-04-26T01:58:14.214Z,0.0000
2023-04-26T01:59:15.381Z,0.0000
2023-04-26T02:00:15.968Z,0.0000
2023-04-26T02:01:16.619Z,0.0000
2023-04-26T02:02:17.676Z,0.0000
2023-04-26T02:03:17.917Z,0.0000
2023-04-26T02:04:18.732Z,0.0000
2023-04-26T02:05:19.534Z,0.0000
2023-04-26T02:06:20.637Z,0.0000
2023-04-26T02:07:21.423Z,0.0000
2023-04-26T02:08:22.145Z,0.0000
2023-04-26T02:09:23.218Z,0.0000
2023-04-26T02:10:24.027Z,0.0000
2023-04-26T02:11:24.494Z,0.0000
2023-04-26T02:12:25.695Z,0.0000
2023-04-26T02:13:26.807Z,0.0000
2023-04-26T02:14:26.500Z,0.0000
2023-04-26T02:15:27.201Z,0.0000
2023-04-26T02:16:28.703Z,0.0000
2023-04-26T02:17:29.634Z,0.0000
2023-04-26T02:18:30.924Z,0.0000
2023-04-26T02:19:31.379Z,0.0000
2023-04-26T02:20:32.026Z,0.0000
2023-04-26T02:21:32.343Z,0.0000
2023-04-26T02:22:33.051Z,0.0000
2023-04-26T02:23:33.740Z,0.0000
2023-04-26T02:24:34.239Z,0.0000
2023-04-26T02:25:35.418Z,0.0000
2023-04-26T02:26:35.344Z,0.0000
2023-04-26T02:27:36.670Z,0.0000
2023-04-26T02:28:37.560Z,0.0000
2023-04-26T02:30:38.498Z,0.0000
2023-04-26T02:31:39.520Z,0.0000
2023-04-26T02:32:39.648Z,0.0000
2023-04-26T02:33:40.213Z,0.0000
2023-04-26T02:34:41.082Z,0.0000
2023-04-26T02:35:41.085Z,0.0000
2023-04-26T02:36:41.629Z,0.0000
2023-04-26T02:37:42.108Z,0.0000
2023-04-26T02:38:42.568Z,0.0000
2023-04-26T02:39:43.664Z,0.0000
2023-04-26T02:40:45.020Z,0.0000
2023-04-26T02:41:49.112Z,0.0000
2023-04-26T02:43:48.401Z,0.0000
2023-04-26T02:44:49.074Z,0.0000
2023-04-26T02:45:49.788Z,0.0000
2023-04-26T02:46:50.372Z,0.0000
2023-04-26T02:47:51.675Z,0.0000
2023-04-26T02:48:51.947Z,0.0000
2023-04-26T02:49:53.609Z,0.0000
2023-04-26T02:51:55.798Z,0.0000
2023-04-26T02:53:55.708Z,0.0000
2023-04-26T02:54:57.125Z,0.0000
2023-04-26T02:56:08.052Z,0.0000
2023-04-26T02:57:09.240Z,0.0000
2023-04-26T02:58:10.464Z,0.0000
2023-04-26T02:59:11.278Z,0.0000
2023-04-26T03:01:14.476Z,0.0000
2023-04-26T03:02:15.937Z,0.0000
2023-04-26T03:04:16.127Z,0.0000
2023-04-26T03:05:15.777Z,0.0000
2023-04-26T03:06:17.069Z,0.0000
2023-04-26T03:07:17.804Z,0.0000
2023-04-26T03:08:19.079Z,0.0000
2023-04-26T03:09:19.636Z,0.0000
2023-04-26T03:10:20.430Z,0.0000
2023-04-26T03:11:21.145Z,0.0000
2023-04-26T03:12:21.783Z,0.0000
2023-04-26T03:13:22.657Z,0.0000
2023-04-26T03:14:23.419Z,0.0000
2023-04-26T03:15:24.150Z,0.0000
2023-04-26T03:16:25.070Z,0.0000
2023-04-26T03:17:26.225Z,0.0000
2023-04-26T03:18:26.420Z,0.0000
2023-04-26T03:19:27.404Z,0.0000
2023-04-26T03:20:28.519Z,0.0000
2023-04-26T03:21:29.372Z,0.0000
2023-04-26T03:22:29.862Z,0.0000
2023-04-26T03:23:30.723Z,0.0000
2023-04-26T03:24:31.167Z,0.0000
2023-04-26T03:25:32.966Z,0.0000
2023-04-26T03:26:33.236Z,0.0000
2023-04-26T03:27:33.181Z,0.0000
2023-04-26T03:28:33.236Z,0.0000
2023-04-26T03:29:33.768Z,0.0000
2023-04-26T03:30:34.480Z,0.0000
2023-04-26T03:31:35.207Z,0.0000
2023-04-26T03:32:35.247Z,0.0000
2023-04-26T03:33:35.913Z,0.0000
2023-04-26T03:34:36.860Z,0.0000
2023-04-26T03:35:37.722Z,0.0000
2023-04-26T03:36:38.431Z,0.0000
2023-04-26T03:37:39.132Z,0.0000
2023-04-26T03:38:39.225Z,0.0000
2023-04-26T03:39:39.985Z,0.0000
2023-04-26T03:40:40.842Z,0.0000
2023-04-26T03:41:41.742Z,0.0000
2023-04-26T03:42:42.735Z,0.0000
2023-04-26T03:43:43.753Z,0.0000
2023-04-26T03:44:44.765Z,0.0000
2023-04-26T03:46:46.332Z,0.0000
2023-04-26T03:47:47.585Z,0.0000
2023-04-26T03:51:09.841Z,0.0000
2023-04-26T03:51:49.544Z,0.0000
2023-04-26T03:52:50.360Z,0.0000
2023-04-26T03:53:50.661Z,0.0000
2023-04-26T03:55:10.892Z,0.0000
2023-04-26T03:55:51.638Z,0.0000
2023-04-26T03:56:51.550Z,0.0000
2023-04-26T03:57:52.393Z,0.0000
2023-04-26T03:58:53.794Z,0.0000
2023-04-26T03:59:55.121Z,0.0000
2023-04-26T04:01:55.839Z,0.0000
2023-04-26T04:02:56.152Z,0.0000
2023-04-26T04:03:56.724Z,0.0000
2023-04-26T04:06:57.850Z,0.0000
2023-04-26T04:07:57.640Z,0.0000
2023-04-26T04:08:58.933Z,0.0000
2023-04-26T04:10:00.677Z,0.0000
2023-04-26T04:11:00.216Z,0.0000
2023-04-26T04:12:01.344Z,0.0000
2023-04-26T04:13:02.399Z,0.0000
2023-04-26T04:14:02.635Z,0.0000
2023-04-26T04:15:03.096Z,0.0000
2023-04-26T04:16:05.169Z,0.0000
2023-04-26T04:17:04.352Z,0.0000
2023-04-26T04:18:06.196Z,0.0000
2023-04-26T04:19:07.452Z,0.0000
2023-04-26T04:20:07.036Z,0.0000
2023-04-26T04:21:07.790Z,0.0000
2023-04-26T04:22:08.514Z,0.0000
2023-04-26T04:23:09.280Z,4.5000
2023-04-26T04:24:10.633Z,5.6250
2023-04-26T04:25:11.746Z,5.6250
2023-04-26T04:26:12.361Z,5.6250
2023-04-26T04:27:12.993Z,5.6250
2023-04-26T04:28:13.245Z,5.6250
2023-04-26T04:29:14.890Z,5.6250
2023-04-26T04:31:15.815Z,5.6250
2023-04-26T04:32:16.539Z,5.6250
2023-04-26T04:33:16.718Z,6.0085
2023-04-26T04:34:17.845Z,11.2500
2023-04-26T04:36:18.474Z,11.2500
2023-04-26T04:37:18.832Z,11.2500
2023-04-26T04:38:20.064Z,11.2500
2023-04-26T04:39:21.007Z,11.2500
2023-04-26T04:40:21.340Z,12.7232
2023-04-26T04:41:43.477Z,16.8750
2023-04-26T04:42:21.882Z,16.8750
2023-04-26T04:43:23.459Z,16.8750
2023-04-26T04:44:24.559Z,16.8750
2023-04-26T04:45:25.098Z,16.8750
2023-04-26T04:46:25.900Z,16.8750
2023-04-26T04:47:28.514Z,21.2500
2023-04-26T04:50:29.404Z,22.5000
2023-04-26T04:52:28.822Z,28.1250
2023-04-26T04:53:29.388Z,28.1250
2023-04-26T04:54:31.138Z,28.1250
2023-04-26T04:55:30.823Z,28.1250
2023-04-26T04:56:32.046Z,28.1250
2023-04-26T04:58:32.395Z,28.1250
2023-04-26T04:59:33.364Z,31.0653
2023-04-26T05:00:35.026Z,33.7500
2023-04-26T05:01:36.184Z,33.7500
2023-04-26T05:02:36.568Z,33.7500
2023-04-26T05:03:38.000Z,33.7500
2023-04-26T05:04:38.226Z,37.0427
2023-04-26T05:05:38.344Z,39.3750
2023-04-26T05:06:39.380Z,39.3750
2023-04-26T05:07:40.026Z,39.3750
2023-04-26T05:08:41.169Z,44.5982
2023-04-26T05:09:42.735Z,45.0000
2023-04-26T05:10:42.872Z,45.0000
2023-04-26T05:11:43.988Z,45.0000
2023-04-26T05:19:53.371Z,55.0000
2023-04-26T05:20:54.137Z,56.2500
2023-04-26T05:21:55.349Z,56.2500
2023-04-26T05:22:56.022Z,56.2500
2023-04-26T05:23:56.226Z,56.2500
2023-04-26T05:24:57.285Z,56.2500
2023-04-26T05:25:57.929Z,56.2500
2023-04-26T05:26:58.636Z,57.3750
2023-04-26T05:27:59.198Z,60.6250
2023-04-26T05:29:00.121Z,57.3750
2023-04-26T05:30:00.811Z,67.5000
2023-04-26T05:31:01.995Z,67.5000
2023-04-26T05:32:03.244Z,67.5000
2023-04-26T05:33:03.264Z,67.5000
2023-04-26T05:34:03.910Z,67.5000
2023-04-26T05:35:04.505Z,67.5000
2023-04-26T05:36:04.851Z,67.5000
2023-04-26T05:37:05.281Z,69.6429
2023-04-26T05:38:06.042Z,67.5000
2023-04-26T05:39:06.618Z,67.5000
2023-04-26T05:40:07.633Z,69.2500
2023-04-26T05:41:08.322Z,73.1250
2023-04-26T05:42:08.661Z,75.8750
2023-04-26T05:43:09.702Z,78.7500
2023-04-26T05:44:10.279Z,78.7500
2023-04-26T05:45:10.997Z,80.6250
2023-04-26T05:46:12.149Z,89.3750
2023-04-26T05:47:13.428Z,97.5000
2023-04-26T05:48:14.266Z,104.1250
2023-04-26T05:49:14.964Z,106.8750
2023-04-26T05:50:15.549Z,106.8750
2023-04-26T05:51:16.682Z,106.8750
2023-04-26T05:52:17.321Z,105.3750
2023-04-26T05:53:17.808Z,97.0000
2023-04-26T05:54:18.198Z,95.7528
2023-04-26T05:55:18.874Z,95.6250
2023-04-26T05:56:19.549Z,95.6250
2023-04-26T05:57:19.782Z,95.6250
2023-04-26T05:58:20.341Z,92.8750
2023-04-26T05:59:21.175Z,95.6250
2023-04-26T06:00:21.906Z,96.6250
2023-04-26T06:01:22.714Z,99.1250
2023-04-26T06:02:24.217Z,91.6250
2023-04-26T06:03:24.265Z,90.7849
2023-04-26T06:04:25.156Z,96.7226
2023-04-26T06:05:25.178Z,103.0814
2023-04-26T06:06:25.851Z,108.9205
2023-04-26T06:07:26.465Z,112.5000
2023-04-26T06:08:27.077Z,120.3750
2023-04-26T06:09:27.238Z,124.5170
2023-04-26T06:10:28.036Z,119.1250
2023-04-26T06:11:28.757Z,131.0000
2023-04-26T06:12:29.513Z,148.2500
2023-04-26T06:13:30.237Z,158.0000
2023-04-26T06:14:31.119Z,157.8125
2023-04-26T06:15:32.163Z,155.8750
2023-04-26T06:16:32.942Z,159.5000
2023-04-26T06:17:34.155Z,159.5455
2023-04-26T06:18:35.165Z,157.6250
2023-04-26T06:19:35.721Z,152.6250
2023-04-26T06:20:36.494Z,150.3750
2023-04-26T06:21:37.319Z,139.6250
2023-04-26T06:22:37.981Z,132.5000
2023-04-26T06:23:39.215Z,126.0000
2023-04-26T06:24:39.798Z,130.7500
2023-04-26T06:25:40.607Z,139.8750
2023-04-26T06:26:41.530Z,140.6250
2023-04-26T06:27:42.153Z,137.5000
2023-04-26T06:28:42.896Z,138.1250
2023-04-26T06:29:43.728Z,152.3750
2023-04-26T06:30:44.637Z,162.5000
2023-04-26T06:31:45.633Z,161.8750
2023-04-26T06:32:46.762Z,157.5000
2023-04-26T06:33:47.419Z,156.1250
2023-04-26T06:34:48.607Z,163.6250
2023-04-26T06:35:49.107Z,168.7500
2023-04-26T06:36:49.760Z,164.5000
2023-04-26T06:37:50.939Z,167.6250
2023-04-26T06:38:51.520Z,168.7500
2023-04-26T06:39:52.329Z,168.7500
2023-04-26T06:40:53.206Z,164.6250
2023-04-26T06:41:53.757Z,180.0000
2023-04-26T06:42:54.476Z,188.7500
2023-04-26T06:43:55.412Z,198.0000
2023-04-26T06:44:55.232Z,185.7528
2023-04-26T06:45:55.203Z,180.0000
2023-04-26T06:46:56.032Z,182.3750
2023-04-26T06:47:57.191Z,186.2500
2023-04-26T06:48:57.984Z,184.0000
2023-04-26T06:49:58.639Z,169.8750
2023-04-26T06:50:59.298Z,166.7500
2023-04-26T06:51:59.936Z,168.7500
2023-04-26T06:53:01.185Z,167.7500
2023-04-26T06:54:01.914Z,163.0000
2023-04-26T06:55:03.427Z,164.9085
2023-04-26T06:56:04.019Z,164.6250
2023-04-26T06:57:04.634Z,166.3750
2023-04-26T06:58:05.130Z,172.6250
2023-04-26T06:59:05.838Z,180.0000
2023-04-26T07:00:06.563Z,185.6250
2023-04-26T07:01:07.033Z,185.6250
2023-04-26T07:02:08.136Z,185.6250
2023-04-26T07:03:08.707Z,185.6250
2023-04-26T07:04:09.964Z,189.3324
2023-04-26T07:05:11.019Z,191.2500
2023-04-26T07:06:12.252Z,187.5000
2023-04-26T07:07:13.762Z,187.2500
2023-04-26T07:08:13.420Z,195.9801
2023-04-26T07:09:14.100Z,197.1250
2023-04-26T07:10:14.796Z,192.1250
2023-04-26T07:11:15.473Z,191.6250
2023-04-26T07:12:16.464Z,193.0814
2023-04-26T07:13:17.090Z,203.2500
2023-04-26T07:14:17.764Z,215.0284
2023-04-26T07:15:18.731Z,219.3750
2023-04-26T07:16:19.483Z,224.3750
2023-04-26T07:17:20.418Z,234.2500
2023-04-26T07:18:21.276Z,235.0000
2023-04-26T07:19:21.935Z,225.2500
2023-04-26T07:20:22.498Z,222.8750
2023-04-26T07:21:23.231Z,236.7500
2023-04-26T07:22:23.855Z,239.7500
2023-04-26T07:23:24.580Z,229.1250
2023-04-26T07:24:25.297Z,213.7500
2023-04-26T07:25:25.747Z,202.5000
2023-04-26T07:26:26.658Z,173.1250
2023-04-26T07:27:26.403Z,190.7386
2023-04-26T07:28:26.877Z,262.6250
2023-04-26T07:29:27.614Z,291.6250
2023-04-26T07:30:28.459Z,286.2500
2023-04-26T07:31:28.786Z,232.1591
2023-04-26T07:32:29.740Z,177.0000
2023-04-26T07:33:31.662Z,222.2500
2023-04-26T07:34:31.931Z,238.0398
2023-04-26T07:35:32.901Z,255.3750
2023-04-26T07:36:33.299Z,269.4643
2023-04-26T07:37:33.775Z,272.1250
2023-04-26T07:38:34.359Z,257.2500
2023-04-26T07:39:34.815Z,236.6250
2023-04-26T07:40:35.770Z,220.5000
2023-04-26T07:41:36.683Z,248.0000
2023-04-26T07:42:37.834Z,263.3523
2023-04-26T07:43:38.633Z,270.9073
2023-04-26T07:44:39.081Z,275.7500
2023-04-26T07:45:39.819Z,263.3750
2023-04-26T07:46:40.885Z,264.3750
2023-04-26T07:47:41.374Z,241.6250
2023-04-26T07:48:42.125Z,195.5000
2023-04-26T07:49:42.677Z,199.0000
2023-04-26T07:50:43.309Z,201.8750
2023-04-26T07:51:44.082Z,211.1250
2023-04-26T07:52:44.534Z,197.5000
2023-04-26T07:53:45.188Z,176.5000
2023-04-26T07:54:45.442Z,181.0227
2023-04-26T07:55:45.927Z,196.5000
2023-04-26T07:56:46.682Z,234.3324
2023-04-26T07:57:47.193Z,276.8750
2023-04-26T07:58:47.881Z,267.8750
2023-04-26T07:59:48.660Z,262.0000
2023-04-26T08:00:49.116Z,277.7500
2023-04-26T08:01:49.852Z,248.6250
2023-04-26T08:02:50.947Z,218.1250
2023-04-26T08:03:51.381Z,201.3227
2023-04-26T08:04:52.463Z,211.1337
2023-04-26T08:05:53.369Z,229.7093
2023-04-26T08:06:53.328Z,222.5710
2023-04-26T08:07:53.868Z,199.1250
2023-04-26T08:08:54.585Z,160.7500
2023-04-26T08:09:55.507Z,147.2500
2023-04-26T08:10:56.042Z,146.2500
2023-04-26T08:11:56.895Z,146.2500
2023-04-26T08:12:57.632Z,165.7500
2023-04-26T08:13:57.892Z,201.5843
2023-04-26T08:14:58.509Z,213.7500
2023-04-26T08:15:59.437Z,227.1250
2023-04-26T08:17:00.269Z,229.1250
2023-04-26T08:18:00.476Z,239.7820
2023-04-26T08:19:01.422Z,234.4186
2023-04-26T08:20:02.203Z,199.8750
2023-04-26T08:21:02.807Z,184.2500
2023-04-26T08:22:03.438Z,211.5000
2023-04-26T08:23:04.169Z,225.5000
2023-04-26T08:24:05.335Z,251.2500
2023-04-26T08:25:06.092Z,235.2500
2023-04-26T08:26:06.796Z,235.2500
2023-04-26T08:27:07.350Z,205.0000
2023-04-26T08:28:08.132Z,176.0000
2023-04-26T08:29:08.812Z,154.7500
2023-04-26T08:30:09.702Z,144.7500
2023-04-26T08:31:09.948Z,149.8295
2023-04-26T08:32:10.843Z,143.3750
2023-04-26T08:33:11.908Z,134.8750
2023-04-26T08:34:12.656Z,140.0000
2023-04-26T08:35:13.164Z,171.8750
2023-04-26T08:36:13.821Z,200.0000
2023-04-26T08:37:14.261Z,211.5000
2023-04-26T08:38:14.915Z,202.6250
2023-04-26T08:39:15.675Z,193.5000
2023-04-26T08:40:16.338Z,207.3750
2023-04-26T08:41:17.057Z,213.7500
2023-04-26T08:42:17.730Z,201.1250
2023-04-26T08:43:18.367Z,205.1250
2023-04-26T08:44:19.062Z,229.8750
2023-04-26T08:45:19.551Z,213.7500
2023-04-26T08:46:20.272Z,180.3750
2023-04-26T08:47:21.133Z,166.7500
2023-04-26T08:48:22.344Z,156.4535
2023-04-26T08:49:23.042Z,142.3750
2023-04-26T08:50:23.811Z,142.7500
2023-04-26T08:51:24.364Z,143.6250
2023-04-26T08:52:24.725Z,140.6250
2023-04-26T08:53:25.270Z,141.6250
2023-04-26T08:54:26.042Z,146.7500
2023-04-26T08:55:26.677Z,146.5000
2023-04-26T08:56:27.138Z,152.1250
2023-04-26T08:57:27.879Z,151.2500
2023-04-26T08:58:28.573Z,146.0000
2023-04-26T08:59:29.039Z,155.5000
2023-04-26T09:00:29.772Z,165.5000
2023-04-26T09:01:30.337Z,183.0000
2023-04-26T09:02:31.102Z,152.1307
2023-04-26T09:03:31.658Z,143.6932
2023-04-26T09:04:32.503Z,140.8866
2023-04-26T09:05:33.268Z,140.4972
2023-04-26T09:06:34.258Z,143.5029
2023-04-26T09:07:34.944Z,157.7500
2023-04-26T09:08:35.627Z,177.3750
2023-04-26T09:09:36.615Z,202.6308
2023-04-26T09:10:37.427Z,224.0000
2023-04-26T09:11:38.128Z,277.2500
2023-04-26T09:12:38.696Z,289.1250
2023-04-26T09:13:39.452Z,272.5000
2023-04-26T09:14:39.985Z,266.8750
2023-04-26T09:15:40.810Z,293.8750
2023-04-26T09:16:42.031Z,316.5000
2023-04-26T09:17:42.864Z,308.3750
2023-04-26T09:18:44.152Z,307.0000
2023-04-26T09:19:44.933Z,313.8750
2023-04-26T09:20:45.271Z,308.0357
2023-04-26T09:21:45.993Z,303.7500
2023-04-26T09:22:46.701Z,295.5000
2023-04-26T09:23:47.279Z,309.5000
2023-04-26T09:24:48.035Z,310.2500
2023-04-26T09:25:48.579Z,334.3750
2023-04-26T09:26:49.326Z,356.1250
2023-04-26T09:27:49.966Z,350.5000
2023-04-26T09:28:50.663Z,370.3750
2023-04-26T09:29:51.027Z,373.1676
2023-04-26T09:30:51.512Z,389.1250
2023-04-26T09:31:52.943Z,429.5089
2023-04-26T09:32:53.834Z,476.1250
2023-04-26T09:33:54.903Z,505.5000
2023-04-26T09:34:55.530Z,464.8750
2023-04-26T09:35:56.142Z,467.1250
2023-04-26T09:36:56.625Z,474.7500
2023-04-26T09:38:01.123Z,454.3903
2023-04-26T09:38:58.552Z,465.8906
2023-04-26T09:39:59.247Z,465.3750
2023-04-26T09:40:59.967Z,461.6250
2023-04-26T09:42:00.446Z,457.3750
2023-04-26T09:43:01.162Z,452.1250
2023-04-26T09:44:01.997Z,450.3750
2023-04-26T09:45:02.651Z,451.6250
2023-04-26T09:46:03.384Z,453.6250
2023-04-26T09:47:04.382Z,448.2500
2023-04-26T09:48:04.306Z,435.0426
2023-04-26T09:49:04.453Z,430.3125
2023-04-26T09:50:05.137Z,427.6250
2023-04-26T09:51:05.901Z,430.2500
2023-04-26T09:52:06.606Z,415.2500
2023-04-26T09:53:07.083Z,408.3750
2023-04-26T09:54:07.740Z,392.0494
2023-04-26T09:55:09.177Z,371.6250
2023-04-26T09:56:08.556Z,344.9449
2023-04-26T09:57:09.450Z,331.8750
2023-04-26T09:58:09.953Z,307.6250
2023-04-26T09:59:10.171Z,303.7500
2023-04-26T10:00:10.806Z,302.6250
2023-04-26T10:01:11.458Z,288.2500
2023-04-26T10:02:12.368Z,264.7500
2023-04-26T10:03:14.173Z,223.6250
2023-04-26T10:04:14.545Z,250.4403
2023-04-26T10:05:15.506Z,294.1250
2023-04-26T10:06:16.181Z,341.5552
2023-04-26T10:07:16.638Z,330.5000
2023-04-26T10:08:17.388Z,291.1250
2023-04-26T10:09:18.500Z,279.7500
2023-04-26T10:10:19.273Z,271.7500
2023-04-26T10:11:20.025Z,276.0000
2023-04-26T10:12:20.763Z,270.3835
2023-04-26T10:13:21.434Z,267.0000
2023-04-26T10:14:22.187Z,274.7500
2023-04-26T10:15:22.752Z,284.7500
2023-04-26T10:16:23.510Z,313.8750
2023-04-26T10:17:24.354Z,335.3750
2023-04-26T10:18:25.156Z,337.5000
2023-04-26T10:19:25.986Z,334.0000
2023-04-26T10:20:26.689Z,337.3750
2023-04-26T10:21:27.438Z,325.0000
2023-04-26T10:22:28.082Z,290.7500
2023-04-26T10:23:28.588Z,279.0000
2023-04-26T10:24:29.433Z,290.5000
2023-04-26T10:25:29.990Z,297.1250
2023-04-26T10:26:30.667Z,310.8750
2023-04-26T10:27:31.393Z,342.5000
2023-04-26T10:28:32.001Z,371.0000
2023-04-26T10:29:32.635Z,397.6875
2023-04-26T10:30:33.401Z,422.7500
2023-04-26T10:31:34.152Z,444.6250
2023-04-26T10:32:35.162Z,451.6250
2023-04-26T10:33:36.479Z,462.8750
2023-04-26T10:34:37.064Z,475.8750
2023-04-26T10:35:37.924Z,471.6250
2023-04-26T10:36:38.387Z,482.5000
2023-04-26T10:37:39.004Z,492.0000
2023-04-26T10:38:39.960Z,502.0000
2023-04-26T10:40:45.821Z,501.1875
2023-04-26T10:41:46.796Z,509.6250
2023-04-26T10:42:47.786Z,535.5523
2023-04-26T10:43:48.507Z,552.6250
2023-04-26T10:44:49.623Z,558.7500
2023-04-26T10:45:50.407Z,562.8750
2023-04-26T10:47:51.131Z,551.3750
2023-04-26T10:48:52.088Z,539.8750
2023-04-26T10:49:52.250Z,525.9375
2023-04-26T10:50:52.882Z,521.7500
2023-04-26T10:51:53.585Z,507.0000
2023-04-26T10:52:54.128Z,501.9034
2023-04-26T10:53:55.570Z,502.6250
2023-04-26T10:54:55.467Z,513.9205
2023-04-26T10:55:56.088Z,514.7500
2023-04-26T10:56:56.785Z,512.6250
2023-04-26T10:57:57.610Z,500.2500
2023-04-26T10:58:58.237Z,498.7500
2023-04-26T10:59:59.064Z,521.3793
2023-04-26T11:01:00.091Z,508.2500
2023-04-26T11:02:00.151Z,470.8381
2023-04-26T11:03:01.301Z,477.5000
2023-04-26T11:04:02.537Z,476.8466
2023-04-26T11:05:03.578Z,461.0000
2023-04-26T11:06:04.196Z,441.1250
2023-04-26T11:07:05.197Z,435.3750
2023-04-26T11:08:05.722Z,466.6250
2023-04-26T11:09:06.754Z,459.1250
2023-04-26T11:10:07.534Z,435.5000
2023-04-26T11:11:08.025Z,368.1250
2023-04-26T11:12:08.645Z,373.5000
2023-04-26T11:13:09.311Z,396.8750
2023-04-26T11:14:09.923Z,401.1250
2023-04-26T11:15:10.663Z,350.5000
2023-04-26T11:16:11.592Z,320.5000
2023-04-26T11:17:12.646Z,324.0000
2023-04-26T11:18:13.529Z,370.0000
2023-04-26T11:19:14.196Z,407.7500
2023-04-26T11:20:14.982Z,410.0000
2023-04-26T11:21:15.797Z,404.5000
2023-04-26T11:22:16.606Z,426.3750
2023-04-26T11:23:17.237Z,492.6250
2023-04-26T11:24:17.695Z,546.3750
2023-04-26T11:25:18.365Z,616.1250
2023-04-26T11:26:19.084Z,642.8750
2023-04-26T11:27:19.562Z,667.8750
2023-04-26T11:28:20.333Z,668.2500
2023-04-26T11:29:20.816Z,631.2500
2023-04-26T11:30:21.460Z,533.8750
2023-04-26T11:31:22.819Z,504.5000
2023-04-26T11:32:23.853Z,541.7500
2023-04-26T11:33:24.817Z,579.5000
2023-04-26T11:34:25.450Z,643.3750
2023-04-26T11:35:25.942Z,715.3750
2023-04-26T11:36:26.585Z,729.2500
2023-04-26T11:37:27.048Z,756.1250
2023-04-26T11:38:27.628Z,710.8750
2023-04-26T11:39:28.712Z,783.3750
2023-04-26T11:40:29.216Z,805.8750
2023-04-26T11:41:29.920Z,670.5000
2023-04-26T11:42:30.625Z,690.1250
2023-04-26T11:43:31.260Z,755.7500
2023-04-26T11:44:32.459Z,709.8750
2023-04-26T11:45:32.987Z,769.6250
2023-04-26T11:46:33.734Z,760.7500
2023-04-26T11:47:34.634Z,708.5000
2023-04-26T11:48:35.419Z,650.1250
2023-04-26T11:49:36.245Z,637.7500
2023-04-26T11:50:36.932Z,592.2500
2023-04-26T11:51:37.673Z,600.8750
2023-04-26T11:52:38.255Z,590.7500
2023-04-26T11:53:38.747Z,570.0000
2023-04-26T11:54:39.731Z,561.6250
2023-04-26T11:55:40.446Z,545.1250
2023-04-26T11:56:41.018Z,526.1250
2023-04-26T11:57:41.810Z,531.1047
2023-04-26T11:58:42.808Z,530.0000
2023-04-26T11:59:43.944Z,501.1364
2023-04-26T12:00:43.769Z,468.9204
2023-04-26T12:01:44.691Z,466.0000
2023-04-26T12:02:46.015Z,508.3750
2023-04-26T12:03:47.354Z,550.8575
2023-04-26T12:04:47.987Z,573.0804
2023-04-26T12:05:48.268Z,529.6449
2023-04-26T12:06:49.286Z,509.1250
2023-04-26T12:07:50.266Z,489.0000
2023-04-26T12:08:51.506Z,473.2500
2023-04-26T12:09:52.092Z,485.6676
2023-04-26T12:10:52.273Z,492.7232
2023-04-26T12:11:52.738Z,492.8750
2023-04-26T12:12:53.909Z,496.1250
2023-04-26T12:13:54.632Z,483.5000
2023-04-26T12:14:55.274Z,460.0000
2023-04-26T12:15:55.399Z,450.2557
2023-04-26T12:16:55.861Z,450.1480
2023-04-26T12:17:56.242Z,456.9034
2023-04-26T12:18:56.283Z,456.1364
2023-04-26T12:19:57.129Z,451.6250
2023-04-26T12:20:57.981Z,440.1250
2023-04-26T12:21:58.013Z,429.3750
2023-04-26T12:22:58.837Z,421.8750
2023-04-26T12:23:59.588Z,418.6250
2023-04-26T12:25:00.485Z,416.0000
2023-04-26T12:26:01.257Z,392.1250
2023-04-26T12:27:02.668Z,366.8750
2023-04-26T12:28:02.550Z,365.6250
2023-04-26T12:29:03.468Z,393.8750
2023-04-26T12:30:04.205Z,407.5000
2023-04-26T12:31:05.060Z,432.6250
2023-04-26T12:32:05.650Z,460.2273
2023-04-26T12:33:16.400Z,503.8594
2023-04-26T12:34:06.437Z,500.6250
2023-04-26T12:35:07.131Z,524.3750
2023-04-26T12:36:07.812Z,508.1250
2023-04-26T12:37:08.353Z,504.2500
2023-04-26T12:38:09.003Z,494.1250
2023-04-26T12:39:09.487Z,488.2244
2023-04-26T12:40:09.584Z,491.9913
2023-04-26T12:41:10.260Z,504.6250
2023-04-26T12:42:10.966Z,518.2500